createdAt,value
2018-11-11T00:00:04.924Z,12.60
2018-11-11T00:02:33.371Z,12.60
2018-11-11T00:05:01.815Z,12.60
2018-11-11T00:07:30.272Z,12.60
2018-11-11T00:09:58.703Z,12.60
2018-11-11T00:12:27.377Z,12.50
2018-11-11T00:14:55.981Z,12.50
2018-11-11T00:17:24.439Z,12.40
2018-11-11T00:19:52.939Z,12.40
2018-11-11T00:22:21.400Z,12.40
2018-11-11T00:24:49.903Z,12.40
2018-11-11T00:27:18.367Z,12.30
2018-11-11T00:29:46.814Z,12.30
2018-11-11T00:32:15.258Z,12.30
2018-11-11T00:34:43.689Z,12.30
2018-11-11T00:37:12.135Z,12.30
2018-11-11T00:39:40.638Z,12.40
2018-11-11T00:42:09.010Z,12.50
2018-11-11T00:44:37.491Z,12.50
2018-11-11T00:47:05.976Z,12.40
2018-11-11T00:49:34.446Z,12.40
2018-11-11T00:52:02.905Z,12.50
2018-11-11T00:54:31.403Z,12.50
2018-11-11T00:56:59.907Z,12.50
2018-11-11T00:59:28.358Z,12.40
2018-11-11T01:01:56.785Z,12.40
2018-11-11T01:04:25.232Z,12.40
2018-11-11T01:06:53.654Z,12.50
2018-11-11T01:09:22.094Z,12.50
2018-11-11T01:11:50.569Z,12.50
2018-11-11T01:14:18.986Z,12.50
2018-11-11T01:16:47.406Z,12.50
2018-11-11T01:19:15.836Z,12.50
2018-11-11T01:21:44.341Z,12.50
2018-11-11T01:24:12.790Z,12.50
2018-11-11T01:26:41.201Z,12.50
2018-11-11T01:29:09.679Z,12.50
2018-11-11T01:31:38.086Z,12.50
2018-11-11T01:34:06.541Z,12.50
2018-11-11T01:36:34.947Z,12.50
2018-11-11T01:39:03.667Z,12.50
2018-11-11T01:41:32.085Z,12.50
2018-11-11T01:44:00.530Z,12.50
2018-11-11T01:46:28.952Z,12.40
2018-11-11T01:48:57.372Z,12.40
2018-11-11T01:51:25.813Z,12.40
2018-11-11T01:53:54.242Z,12.40
2018-11-11T01:56:22.652Z,12.40
2018-11-11T01:58:51.111Z,12.30
2018-11-11T02:01:19.530Z,12.30
2018-11-11T02:03:47.954Z,12.30
2018-11-11T02:06:16.387Z,12.30
2018-11-11T02:08:45.045Z,12.30
2018-11-11T02:11:13.520Z,12.30
2018-11-11T02:13:41.938Z,12.20
2018-11-11T02:16:10.381Z,12.30
2018-11-11T02:18:38.832Z,12.20
2018-11-11T02:21:07.384Z,12.30
2018-11-11T02:23:35.749Z,12.20
2018-11-11T02:26:04.279Z,12.20
2018-11-11T02:28:32.721Z,12.30
2018-11-11T02:31:01.170Z,12.30
2018-11-11T02:33:29.595Z,12.30
2018-11-11T02:35:58.037Z,12.20
2018-11-11T02:38:26.483Z,12.30
2018-11-11T02:40:54.920Z,12.20
2018-11-11T02:43:23.342Z,12.20
2018-11-11T02:45:51.786Z,12.30
2018-11-11T02:48:20.245Z,12.30
2018-11-11T02:50:48.673Z,12.30
2018-11-11T02:53:17.122Z,12.30
2018-11-11T02:55:45.576Z,12.30
2018-11-11T02:58:14.017Z,12.40
2018-11-11T03:00:42.426Z,12.40
2018-11-11T03:03:10.881Z,12.40
2018-11-11T03:05:39.386Z,12.40
2018-11-11T03:08:07.925Z,12.40
2018-11-11T03:10:36.361Z,12.40
2018-11-11T03:13:05.170Z,12.50
2018-11-11T03:15:33.615Z,12.50
2018-11-11T03:18:02.061Z,12.50
2018-11-11T03:20:30.470Z,12.40
2018-11-11T03:22:58.930Z,12.40
2018-11-11T03:25:27.524Z,12.40
2018-11-11T03:27:56.114Z,12.40
2018-11-11T03:30:24.548Z,12.40
2018-11-11T03:32:52.974Z,12.30
2018-11-11T03:35:21.482Z,12.20
2018-11-11T03:37:49.934Z,12.20
2018-11-11T03:40:19.671Z,12.20
2018-11-11T03:42:48.581Z,12.10
2018-11-11T03:45:18.178Z,12.10
2018-11-11T03:47:47.702Z,12.10
2018-11-11T03:50:16.184Z,12.00
2018-11-11T03:52:44.948Z,12.00
2018-11-11T03:55:13.442Z,12.00
2018-11-11T03:57:41.913Z,12.00
2018-11-11T04:00:11.804Z,11.90
2018-11-11T04:02:40.348Z,11.90
2018-11-11T04:05:10.126Z,11.90
2018-11-11T04:07:38.918Z,11.90
2018-11-11T04:10:09.467Z,12.00
2018-11-11T04:12:38.154Z,11.90
2018-11-11T04:15:07.812Z,11.90
2018-11-11T04:17:36.709Z,11.90
2018-11-11T04:20:05.687Z,11.90
2018-11-11T04:22:34.139Z,12.00
2018-11-11T04:25:02.580Z,12.00
2018-11-11T04:27:30.987Z,12.10
2018-11-11T04:29:59.420Z,12.10
2018-11-11T04:32:27.849Z,12.10
2018-11-11T04:34:56.340Z,12.10
2018-11-11T04:37:24.741Z,12.10
2018-11-11T04:39:53.167Z,12.10
2018-11-11T04:42:21.588Z,12.00
2018-11-11T04:44:50.046Z,12.00
2018-11-11T04:47:18.519Z,12.00
2018-11-11T04:49:46.955Z,12.00
2018-11-11T04:52:15.370Z,12.10
2018-11-11T04:54:43.826Z,12.10
2018-11-11T04:57:12.222Z,12.20
2018-11-11T04:59:40.660Z,12.20
2018-11-11T05:02:09.089Z,12.20
2018-11-11T05:04:37.607Z,12.20
2018-11-11T05:07:06.681Z,12.30
2018-11-11T05:09:35.093Z,12.20
2018-11-11T05:12:03.516Z,12.30
2018-11-11T05:14:31.932Z,12.30
2018-11-11T05:17:00.334Z,12.30
2018-11-11T05:19:28.788Z,12.30
2018-11-11T05:21:57.288Z,12.40
2018-11-11T05:24:25.631Z,12.30
2018-11-11T05:26:54.055Z,12.30
2018-11-11T05:29:22.500Z,12.30
2018-11-11T05:31:50.913Z,12.30
2018-11-11T05:34:19.341Z,12.20
2018-11-11T05:36:47.749Z,12.30
2018-11-11T05:39:16.797Z,12.30
2018-11-11T05:41:45.189Z,12.30
2018-11-11T05:44:13.642Z,12.30
2018-11-11T05:46:42.022Z,12.30
2018-11-11T05:49:10.449Z,12.30
2018-11-11T05:51:38.895Z,12.30
2018-11-11T05:54:07.358Z,12.50
2018-11-11T05:56:35.796Z,12.50
2018-11-11T05:59:04.541Z,12.50
2018-11-11T06:01:33.025Z,12.50
2018-11-11T06:04:01.575Z,12.50
2018-11-11T06:06:29.993Z,12.50
2018-11-11T06:08:58.411Z,12.50
2018-11-11T06:11:26.841Z,12.50
2018-11-11T06:13:55.314Z,12.60
2018-11-11T06:16:23.750Z,12.60
2018-11-11T06:18:52.172Z,12.50
2018-11-11T06:21:20.617Z,12.50
2018-11-11T06:23:49.026Z,12.40
2018-11-11T06:26:17.581Z,12.40
2018-11-11T06:28:46.000Z,12.40
2018-11-11T06:31:14.441Z,12.30
2018-11-11T06:33:42.900Z,12.30
2018-11-11T06:36:11.395Z,12.30
2018-11-11T06:38:39.816Z,12.30
2018-11-11T06:41:08.272Z,12.30
2018-11-11T06:43:36.694Z,12.30
2018-11-11T06:46:05.442Z,12.30
2018-11-11T06:48:33.898Z,12.30
2018-11-11T06:51:02.358Z,12.40
2018-11-11T06:53:30.816Z,12.40
2018-11-11T06:55:59.266Z,12.50
2018-11-11T06:58:27.690Z,12.50
2018-11-11T07:00:56.210Z,12.50
2018-11-11T07:03:46.039Z,12.50
2018-11-11T07:06:14.558Z,12.60
2018-11-11T07:08:42.973Z,12.70
2018-11-11T07:11:11.438Z,12.70
2018-11-11T07:13:39.907Z,12.80
2018-11-11T07:16:08.399Z,12.80
2018-11-11T07:18:36.946Z,12.90
2018-11-11T07:21:05.895Z,12.90
2018-11-11T07:23:34.377Z,13.00
2018-11-11T07:26:03.028Z,12.90
2018-11-11T07:28:31.489Z,12.90
2018-11-11T07:31:00.018Z,13.00
2018-11-11T07:33:28.806Z,12.90
2018-11-11T07:35:57.414Z,12.90
2018-11-11T07:38:25.843Z,12.90
2018-11-11T07:40:54.276Z,13.00
2018-11-11T07:43:22.718Z,13.00
2018-11-11T07:45:51.173Z,13.00
2018-11-11T07:48:19.915Z,13.00
2018-11-11T07:50:48.347Z,12.90
2018-11-11T07:53:16.782Z,12.90
2018-11-11T07:55:45.207Z,13.00
2018-11-11T07:58:13.719Z,13.00
2018-11-11T08:00:42.094Z,13.00
2018-11-11T08:03:10.537Z,13.00
2018-11-11T08:05:38.973Z,13.00
2018-11-11T08:08:07.439Z,13.10
2018-11-11T08:10:47.056Z,13.00
2018-11-11T08:13:15.514Z,13.00
2018-11-11T08:15:43.950Z,13.00
2018-11-11T08:18:12.430Z,13.10
2018-11-11T08:20:40.867Z,13.10
2018-11-11T08:23:09.302Z,13.10
2018-11-11T08:25:37.742Z,13.10
2018-11-11T08:28:06.206Z,13.10
2018-11-11T08:30:35.011Z,13.10
2018-11-11T08:33:03.534Z,13.40
2018-11-11T08:35:31.979Z,14.90
2018-11-11T08:38:00.514Z,16.00
2018-11-11T08:40:29.056Z,16.10
2018-11-11T08:42:57.531Z,15.50
2018-11-11T08:45:25.953Z,14.90
2018-11-11T08:47:54.729Z,14.80
2018-11-11T08:50:23.175Z,15.60
2018-11-11T08:52:51.927Z,16.10
2018-11-11T08:55:20.440Z,17.10
2018-11-11T08:57:48.995Z,18.30
2018-11-11T09:00:17.465Z,18.90
2018-11-11T09:02:46.739Z,19.60
2018-11-11T09:05:15.214Z,20.40
2018-11-11T09:07:43.633Z,20.40
2018-11-11T09:10:12.817Z,19.50
2018-11-11T09:12:41.433Z,18.20
2018-11-11T09:15:12.466Z,16.90
2018-11-11T09:17:41.523Z,16.10
2018-11-11T09:20:10.732Z,15.80
2018-11-11T09:22:39.333Z,16.50
2018-11-11T09:25:09.038Z,17.80
2018-11-11T09:27:37.793Z,19.10
2018-11-11T09:30:08.603Z,20.00
2018-11-11T09:32:37.022Z,20.20
2018-11-11T09:35:06.315Z,20.20
2018-11-11T09:37:34.801Z,19.90
2018-11-11T09:40:03.358Z,19.90
2018-11-11T09:42:31.874Z,20.30
2018-11-11T09:45:00.642Z,19.80
2018-11-11T09:47:29.112Z,19.50
2018-11-11T09:49:57.717Z,18.50
2018-11-11T09:52:26.183Z,17.10
2018-11-11T09:54:54.649Z,16.50
2018-11-11T09:57:23.159Z,16.10
2018-11-11T09:59:51.635Z,15.90
2018-11-11T10:02:20.166Z,15.70
2018-11-11T10:04:53.961Z,15.60
2018-11-11T10:07:26.265Z,15.50
2018-11-11T10:10:01.053Z,15.70
2018-11-11T10:12:34.165Z,15.70
2018-11-11T10:15:21.812Z,15.70
2018-11-11T10:17:59.275Z,15.50
2018-11-11T10:20:42.005Z,15.50
2018-11-11T10:23:15.370Z,15.40
2018-11-11T10:25:51.237Z,15.50
2018-11-11T10:28:25.730Z,15.40
2018-11-11T10:30:58.213Z,15.50
2018-11-11T10:33:32.100Z,15.60
2018-11-11T10:36:05.833Z,15.50
2018-11-11T10:38:38.435Z,15.60
2018-11-11T10:41:12.399Z,15.70
2018-11-11T10:43:48.556Z,16.00
2018-11-11T10:46:22.527Z,16.00
2018-11-11T10:48:57.615Z,15.80
2018-11-11T10:51:26.096Z,15.60
2018-11-11T10:53:54.560Z,15.70
2018-11-11T10:56:23.051Z,15.70
2018-11-11T10:58:51.482Z,15.80
2018-11-11T11:01:25.238Z,15.60
2018-11-11T11:03:53.703Z,15.50
2018-11-11T11:06:27.488Z,15.50
2018-11-11T11:09:01.135Z,15.50
2018-11-11T11:11:29.613Z,15.50
2018-11-11T11:13:58.186Z,15.50
2018-11-11T11:16:26.629Z,15.60
2018-11-11T11:18:55.066Z,15.70
2018-11-11T11:21:23.526Z,15.70
2018-11-11T11:23:52.019Z,15.80
2018-11-11T11:26:20.452Z,15.80
2018-11-11T11:28:49.842Z,16.10
2018-11-11T11:31:18.304Z,16.30
2018-11-11T11:33:46.761Z,16.70
2018-11-11T11:36:15.223Z,17.10
2018-11-11T11:38:43.760Z,17.80
2018-11-11T11:41:12.230Z,17.60
2018-11-11T11:43:40.754Z,17.50
2018-11-11T11:46:09.231Z,17.30
2018-11-11T11:48:37.722Z,17.10
2018-11-11T11:51:06.166Z,16.90
2018-11-11T11:53:34.680Z,16.70
2018-11-11T11:56:03.139Z,16.40
2018-11-11T11:58:32.172Z,16.40
2018-11-11T12:01:00.663Z,16.40
2018-11-11T12:03:29.169Z,16.30
2018-11-11T12:05:57.622Z,16.20
2018-11-11T12:08:26.158Z,16.10
2018-11-11T12:10:54.613Z,15.90
2018-11-11T12:13:23.146Z,15.80
2018-11-11T12:15:51.666Z,15.60
2018-11-11T12:18:20.090Z,15.70
2018-11-11T12:20:48.626Z,15.50
2018-11-11T12:23:17.208Z,15.50
2018-11-11T12:25:45.523Z,15.50
2018-11-11T12:28:14.066Z,15.50
2018-11-11T12:30:42.577Z,15.40
2018-11-11T12:33:11.011Z,15.40
2018-11-11T12:35:39.485Z,15.30
2018-11-11T12:38:07.959Z,15.30
2018-11-11T12:40:36.971Z,15.30
2018-11-11T12:43:05.525Z,15.20
2018-11-11T12:45:33.998Z,15.20
2018-11-11T12:48:02.540Z,15.20
2018-11-11T12:50:31.081Z,15.20
2018-11-11T12:52:59.468Z,15.20
2018-11-11T12:55:28.127Z,15.20
2018-11-11T12:57:56.523Z,15.10
2018-11-11T13:00:25.078Z,15.10
2018-11-11T13:02:53.530Z,15.00
2018-11-11T13:05:22.017Z,15.00
2018-11-11T13:07:50.507Z,15.00
2018-11-11T13:10:18.970Z,15.10
2018-11-11T13:12:47.738Z,15.10
2018-11-11T13:15:16.282Z,15.10
2018-11-11T13:17:44.730Z,15.00
2018-11-11T13:20:14.548Z,15.00
2018-11-11T13:22:43.100Z,15.00
2018-11-11T13:25:12.648Z,14.90
2018-11-11T13:27:41.089Z,14.80
2018-11-11T13:30:11.329Z,14.70
2018-11-11T13:32:39.814Z,14.60
2018-11-11T13:35:09.923Z,14.50
2018-11-11T13:37:38.414Z,14.40
2018-11-11T13:40:09.448Z,14.30
2018-11-11T13:42:37.902Z,14.30
2018-11-11T13:45:09.185Z,14.20
2018-11-11T13:47:37.625Z,14.10
2018-11-11T13:50:08.882Z,14.10
2018-11-11T13:52:37.295Z,14.00
2018-11-11T13:55:07.012Z,13.90
2018-11-11T13:57:35.434Z,13.90
2018-11-11T14:00:04.415Z,13.80
2018-11-11T14:02:32.881Z,13.70
2018-11-11T14:05:01.439Z,13.60
2018-11-11T14:07:29.891Z,13.50
2018-11-11T14:09:58.328Z,13.50
2018-11-11T14:12:26.887Z,13.40
2018-11-11T14:14:55.501Z,13.40
2018-11-11T14:17:23.982Z,13.40
2018-11-11T14:19:52.452Z,13.40
2018-11-11T14:22:20.940Z,13.30
2018-11-11T14:24:49.395Z,13.30
2018-11-11T14:27:17.968Z,13.10
2018-11-11T14:29:46.417Z,13.10
2018-11-11T14:32:14.933Z,13.10
2018-11-11T14:34:43.342Z,13.10
2018-11-11T14:37:11.797Z,13.00
2018-11-11T14:39:40.302Z,13.00
2018-11-11T14:42:08.723Z,12.90
2018-11-11T14:44:37.154Z,13.00
2018-11-11T14:47:08.768Z,13.00
2018-11-11T14:49:37.196Z,12.90
2018-11-11T14:52:05.995Z,12.90
2018-11-11T14:54:34.388Z,12.90
2018-11-11T14:57:02.855Z,12.90
2018-11-11T14:59:31.288Z,12.90
2018-11-11T15:01:59.748Z,12.90
2018-11-11T15:04:28.172Z,12.90
2018-11-11T15:06:56.798Z,12.90
2018-11-11T15:09:25.247Z,12.90
2018-11-11T15:11:53.972Z,12.80
2018-11-11T15:14:22.422Z,12.80
2018-11-11T15:16:50.881Z,12.80
2018-11-11T15:19:19.480Z,12.80
2018-11-11T15:21:47.838Z,12.80
2018-11-11T15:24:16.253Z,12.80
2018-11-11T15:27:47.491Z,12.80
2018-11-11T15:30:20.327Z,12.80
2018-11-11T15:32:49.143Z,12.80
2018-11-11T15:35:17.586Z,12.80
2018-11-11T15:37:46.041Z,12.80
2018-11-11T15:40:17.568Z,12.80
2018-11-11T15:42:46.080Z,12.80
2018-11-11T15:45:16.446Z,12.90
2018-11-11T15:47:44.901Z,12.90
2018-11-11T15:50:15.039Z,12.90
2018-11-11T15:52:45.294Z,13.00
2018-11-11T15:55:14.463Z,13.00
2018-11-11T15:57:42.958Z,13.00
2018-11-11T16:00:14.140Z,13.00
2018-11-11T16:02:43.003Z,13.00
2018-11-11T16:05:12.278Z,13.10
2018-11-11T16:07:41.461Z,13.00
2018-11-11T16:10:12.153Z,13.00
2018-11-11T16:12:40.610Z,13.10
2018-11-11T16:15:15.822Z,13.10
2018-11-11T16:17:45.334Z,13.10
2018-11-11T16:20:18.098Z,13.20
2018-11-11T16:22:47.802Z,13.20
2018-11-11T16:25:16.279Z,13.10
2018-11-11T16:27:45.746Z,13.10
2018-11-11T16:30:32.118Z,13.10
2018-11-11T16:33:01.077Z,13.20
2018-11-11T16:35:30.275Z,13.20
2018-11-11T16:37:59.266Z,13.30
2018-11-11T16:40:29.140Z,13.20
2018-11-11T16:42:57.863Z,13.30
2018-11-11T16:45:28.699Z,13.30
2018-11-11T16:47:57.263Z,13.30
2018-11-11T16:50:29.039Z,13.30
2018-11-11T16:52:58.948Z,13.20
2018-11-11T16:55:28.627Z,13.20
2018-11-11T16:57:58.011Z,13.20
2018-11-11T17:00:27.634Z,13.30
2018-11-11T17:02:56.978Z,13.30
2018-11-11T17:05:26.669Z,13.30
2018-11-11T17:07:55.341Z,13.20
2018-11-11T17:10:25.177Z,13.20
2018-11-11T17:12:54.590Z,13.20
2018-11-11T17:15:24.574Z,13.30
2018-11-11T17:17:52.998Z,13.30
2018-11-11T17:20:22.383Z,13.30
2018-11-11T17:22:51.816Z,13.30
2018-11-11T17:25:21.140Z,13.30
2018-11-11T17:27:49.640Z,13.30
2018-11-11T17:30:19.769Z,13.30
2018-11-11T17:32:49.135Z,13.20
2018-11-11T17:35:17.582Z,13.20
2018-11-11T17:37:46.102Z,13.30
2018-11-11T17:40:16.950Z,13.40
2018-11-11T17:42:46.359Z,13.40
2018-11-11T17:45:15.123Z,13.30
2018-11-11T17:47:44.149Z,13.30
2018-11-11T17:50:15.393Z,13.30
2018-11-11T17:52:43.905Z,13.20
2018-11-11T17:55:14.152Z,13.30
2018-11-11T17:57:42.965Z,13.30
2018-11-11T18:00:14.861Z,13.30
2018-11-11T18:02:43.370Z,13.30
2018-11-11T18:05:12.914Z,13.40
2018-11-11T18:07:41.879Z,13.30
2018-11-11T18:10:12.881Z,13.20
2018-11-11T18:12:41.418Z,13.10
2018-11-11T18:15:11.665Z,13.00
2018-11-11T18:17:40.713Z,12.90
2018-11-11T18:20:11.632Z,12.80
2018-11-11T18:22:40.094Z,12.80
2018-11-11T18:25:08.610Z,12.90
2018-11-11T18:27:37.327Z,12.90
2018-11-11T18:30:13.895Z,12.80
2018-11-11T18:32:42.384Z,12.80
2018-11-11T18:35:12.485Z,12.80
2018-11-11T18:37:40.955Z,12.80
2018-11-11T18:40:11.192Z,12.70
2018-11-11T18:42:39.588Z,12.60
2018-11-11T18:45:11.820Z,12.50
2018-11-11T18:47:40.303Z,12.40
2018-11-11T18:50:11.373Z,12.40
2018-11-11T18:52:39.880Z,12.40
2018-11-11T18:55:08.988Z,12.30
2018-11-11T18:57:38.648Z,12.20
2018-11-11T19:00:13.238Z,12.20
2018-11-11T19:02:42.262Z,12.20
2018-11-11T19:05:12.442Z,12.10
2018-11-11T19:07:41.267Z,12.00
2018-11-11T19:10:12.157Z,12.00
2018-11-11T19:12:41.622Z,11.90
2018-11-11T19:15:11.585Z,11.90
2018-11-11T19:17:40.589Z,11.80
2018-11-11T19:20:11.208Z,11.80
2018-11-11T19:22:39.703Z,11.80
2018-11-11T19:25:10.825Z,11.80
2018-11-11T19:27:39.372Z,11.70
2018-11-11T19:30:08.922Z,11.70
2018-11-11T19:32:38.024Z,11.70
2018-11-11T19:35:06.803Z,11.60
2018-11-11T19:37:35.326Z,11.60
2018-11-11T19:40:04.184Z,11.60
2018-11-11T19:42:32.640Z,11.60
2018-11-11T19:45:01.079Z,11.60
2018-11-11T19:47:29.554Z,11.50
2018-11-11T19:49:58.011Z,11.50
2018-11-11T19:52:26.494Z,11.60
2018-11-11T19:54:55.060Z,11.50
2018-11-11T19:57:23.502Z,11.60
2018-11-11T19:59:51.935Z,11.50
2018-11-11T20:02:20.406Z,11.60
2018-11-11T20:04:48.879Z,11.60
2018-11-11T20:07:17.318Z,11.60
2018-11-11T20:09:45.783Z,11.50
2018-11-11T20:12:14.209Z,11.50
2018-11-11T20:14:42.679Z,11.50
2018-11-11T20:17:11.158Z,11.50
2018-11-11T20:19:39.639Z,11.50
2018-11-11T20:22:08.144Z,11.50
2018-11-11T20:24:36.754Z,11.50
2018-11-11T20:27:05.323Z,11.50
2018-11-11T20:29:33.763Z,11.50
2018-11-11T20:32:02.186Z,11.60
2018-11-11T20:34:30.626Z,11.50
2018-11-11T20:36:59.117Z,11.50
2018-11-11T20:39:27.520Z,11.50
2018-11-11T20:41:55.982Z,11.60
2018-11-11T20:44:24.436Z,11.50
2018-11-11T20:46:52.911Z,11.50
2018-11-11T20:49:21.359Z,11.50
2018-11-11T20:51:49.834Z,11.50
2018-11-11T20:54:18.278Z,11.50
2018-11-11T20:56:46.792Z,11.50
2018-11-11T20:59:15.240Z,11.50
2018-11-11T21:01:43.841Z,11.50
2018-11-11T21:04:12.349Z,11.50
2018-11-11T21:06:40.821Z,11.50
2018-11-11T21:09:11.669Z,11.60
2018-11-11T21:11:40.152Z,11.60
2018-11-11T21:14:09.135Z,11.60
2018-11-11T21:16:37.589Z,11.60
2018-11-11T21:19:06.812Z,11.60
2018-11-11T21:21:35.318Z,11.60
2018-11-11T21:24:03.775Z,11.70
2018-11-11T21:26:32.248Z,11.70
2018-11-11T21:29:00.692Z,11.70
2018-11-11T21:31:29.138Z,11.60
2018-11-11T21:33:57.563Z,11.60
2018-11-11T21:36:26.048Z,11.60
2018-11-11T21:38:54.482Z,11.60
2018-11-11T21:41:23.029Z,11.60
2018-11-11T21:43:51.501Z,11.50
2018-11-11T21:46:19.948Z,11.50
2018-11-11T21:48:48.401Z,11.50
2018-11-11T21:51:16.825Z,11.50
2018-11-11T21:53:45.310Z,11.50
2018-11-11T21:56:13.790Z,11.50
2018-11-11T21:58:42.313Z,11.50
2018-11-11T22:01:10.693Z,11.50
2018-11-11T22:03:39.214Z,11.40
2018-11-11T22:06:07.668Z,11.40
2018-11-11T22:08:36.229Z,11.40
2018-11-11T22:11:05.221Z,11.40
2018-11-11T22:13:33.680Z,11.40
2018-11-11T22:16:02.208Z,11.50
2018-11-11T22:18:30.612Z,11.50
2018-11-11T22:20:59.057Z,11.50
2018-11-11T22:23:27.642Z,11.50
2018-11-11T22:25:56.086Z,11.40
2018-11-11T22:28:24.512Z,11.50
2018-11-11T22:30:52.972Z,11.50
2018-11-11T22:33:21.429Z,11.50
2018-11-11T22:35:49.909Z,11.50
2018-11-11T22:38:18.554Z,11.50
2018-11-11T22:40:47.124Z,11.50
2018-11-11T22:43:15.576Z,11.50
2018-11-11T22:45:44.127Z,11.50
2018-11-11T22:48:12.576Z,11.50
2018-11-11T22:50:41.057Z,11.50
2018-11-11T22:53:09.522Z,11.50
2018-11-11T22:55:37.998Z,11.50
2018-11-11T22:58:06.486Z,11.50
2018-11-11T23:00:35.003Z,11.50
2018-11-11T23:03:03.463Z,11.60
2018-11-11T23:05:32.142Z,11.60
2018-11-11T23:08:00.553Z,11.50
2018-11-11T23:10:29.010Z,11.50
2018-11-11T23:12:57.447Z,11.60
2018-11-11T23:15:25.878Z,11.60
2018-11-11T23:17:54.335Z,11.60
2018-11-11T23:20:22.763Z,11.60
2018-11-11T23:22:51.215Z,11.50
2018-11-11T23:25:19.731Z,11.60
2018-11-11T23:27:48.203Z,11.60
2018-11-11T23:30:18.975Z,11.60
2018-11-11T23:32:47.778Z,11.60
2018-11-11T23:35:16.230Z,11.60
2018-11-11T23:37:45.067Z,11.60
2018-11-11T23:40:14.671Z,11.60
2018-11-11T23:42:43.869Z,11.50
2018-11-11T23:45:12.321Z,11.50
2018-11-11T23:47:40.865Z,11.50
2018-11-11T23:50:11.231Z,11.60
2018-11-11T23:52:39.823Z,11.50
2018-11-11T23:55:09.913Z,11.60
2018-11-11T23:57:38.418Z,11.60
